Detall de PIREP

Printer-friendly versionPDF version

[2015/07/04 17:30:00]
Flight IATA:CT3405
Pilot Number:042
Company ICAO:CAT
Aircraft Type:B738/F
PAX:45
Departing Airport: GCLP
Destination Airport: LEBL
Alternate Airport:LERS
Online: VATSIM
Route:KORAL UG5 ESS UN871 OSDAM UB28 BARPA UM985 PIMOS UM445 BEGOX UN860 VLC UM985 SOPET UN608 MATEX
Flight Level:F360
No Slew and time accel
No pause
Crash detect
Detect pilot in Cockpit between each 30 and 45 minutes
17:30 Zero fuel Weight: 121807 Lbs, Fuel Weight: 46045 Lbs
17:30 VATSIM:GCLP 041400Z 02027KT 9999 FEW025 26/15 Q1019 WS ALL RWY NOSIG
17:30 VATSIM:LEBL 041400Z 17012KT CAVOK 30/20 Q1020 NOSIG
17:33 Parking Brakes off
17:41 Take-off
17:41 Take off Weight: 166909 Lbs
17:41 Wind: 020º @ 027 Knots Heading: 201º
17:41 POS N27º 55´ 10´´ W015º 23´ 22´´
17:41 Gear Up: 168 Knots
17:41 Flaps:4 at 168 Knots
17:42 Flaps:3 at 166 Knots
17:42 Flaps:2 at 184 Knots
17:42 Flaps:1 at 211 Knots
17:42 Flaps:0 at 224 Knots
17:56 Wind:280º@004 Knots Heading: 056º Ground Speed: 412 Knots Altitude 17178 ft
18:11 Wind:328º@023 Knots Heading: 052º Ground Speed: 459 Knots Altitude 34563 ft
18:12 TOC
18:12 Fuel Weight: 39652 Lb
18:26 Wind:316º@021 Knots Heading: 053º Ground Speed: 460 Knots Altitude 36053 ft
18:41 Wind:310º@013 Knots Heading: 030º Ground Speed: 455 Knots Altitude 36056 ft
18:56 Wind:306º@011 Knots Heading: 030º Ground Speed: 455 Knots Altitude 36085 ft
19:11 Wind:287º@013 Knots Heading: 031º Ground Speed: 460 Knots Altitude 36089 ft
19:26 Wind:272º@012 Knots Heading: 061º Ground Speed: 466 Knots Altitude 36135 ft
19:41 Wind:254º@013 Knots Heading: 045º Ground Speed: 467 Knots Altitude 36200 ft
19:56 Wind:237º@018 Knots Heading: 052º Ground Speed: 473 Knots Altitude 36204 ft
20:10 TOD
20:10 Fuel Weight: 29121 Lb
20:11 Wind:219º@016 Knots Heading: 015º Ground Speed: 469 Knots Altitude 35154 ft
20:26 Wind:223º@010 Knots Heading: 028º Ground Speed: 299 Knots Altitude 10935 ft
20:30 Flaps:1 at 211 Knots
20:31 Flaps:2 at 193 Knots
20:32 Flaps:3 at 200 Knots
20:32 Flaps:4 at 206 Knots
20:32 Gear Down: 218 Knots
20:33 Flaps:5 at 220 Knots
20:33 Flaps:6 at 217 Knots
20:34 Flaps:7 at 169 Knots
20:34 Flaps:8 at 158 Knots
20:35 TouchDown:Rate -211 ft/min Speed: 144 Knots
20:36 VATSIM:LEBL 041700Z 19008KT CAVOK 28/22 Q1020 NOSIG
20:36 Land
20:36 Wind:189º@008 Knots
20:36 Heading: 062º
20:36 Flight Duration: 02:55
20:36 Landing Weight: 149967 Lbs
20:36 POS N41º 17´ 55´´ E002º 05´ 00´´
20:40 Parking brakes on
20:40 Block to Block Duration: 03:07
20:40 Final Fuel: 27879 Lbls
20:40 Spent Fuel: 18165 Lbls
20:40 Flight Length: 1264 NM
20:40 TOD Land Length: 143 NM

Exportar CSV

Powered by Drupal - Modified by Danger4k